createdAt,value
2022-08-01T00:00:51.554Z,5.90
2022-08-01T00:01:55.985Z,8.02
2022-08-01T00:02:58.149Z,7.82
2022-08-01T00:04:01.529Z,7.15
2022-08-01T00:05:05.368Z,5.75
2022-08-01T00:06:08.478Z,6.82
2022-08-01T00:07:10.489Z,5.32
2022-08-01T00:08:13.504Z,5.88
2022-08-01T00:09:24.191Z,7.15
2022-08-01T00:10:27.622Z,5.95
2022-08-01T00:11:29.637Z,4.72
2022-08-01T00:12:32.720Z,5.10
2022-08-01T00:13:34.767Z,5.63
2022-08-01T00:14:37.816Z,4.65
2022-08-01T00:15:40.035Z,5.18
2022-08-01T00:16:43.409Z,5.13
2022-08-01T00:17:46.827Z,4.90
2022-08-01T00:18:50.234Z,5.22
2022-08-01T00:19:52.224Z,5.22
2022-08-01T00:20:55.222Z,7.35
2022-08-01T00:21:58.306Z,6.70
2022-08-01T00:23:00.353Z,5.38
2022-08-01T00:24:05.669Z,6.20
2022-08-01T00:25:08.768Z,4.60
2022-08-01T00:26:11.817Z,4.90
2022-08-01T00:27:15.620Z,5.97
2022-08-01T00:28:19.417Z,5.65
2022-08-01T00:30:12.431Z,5.80
2022-08-01T00:30:51.667Z,5.43
2022-08-01T00:31:53.951Z,6.00
2022-08-01T00:32:58.430Z,6.00
2022-08-01T00:34:00.858Z,5.30
2022-08-01T00:35:03.918Z,6.57
2022-08-01T00:36:06.121Z,5.80
2022-08-01T00:37:09.367Z,5.90
2022-08-01T00:38:12.548Z,6.25
2022-08-01T00:39:15.635Z,4.80
2022-08-01T00:40:17.685Z,5.18
2022-08-01T00:41:20.685Z,5.55
2022-08-01T00:42:22.812Z,5.60
2022-08-01T00:43:25.929Z,5.78
2022-08-01T00:44:28.169Z,5.75
2022-08-01T00:45:31.198Z,4.97
2022-08-01T00:46:34.886Z,6.22
2022-08-01T00:47:36.870Z,4.95
2022-08-01T00:48:41.384Z,4.88
2022-08-01T00:49:43.501Z,4.60
2022-08-01T00:50:46.694Z,7.13
2022-08-01T00:51:49.286Z,5.80
2022-08-01T00:52:52.938Z,5.40
2022-08-01T00:53:56.729Z,6.85
2022-08-01T00:55:00.633Z,5.93
2022-08-01T00:56:04.069Z,6.68
2022-08-01T00:57:09.839Z,5.20
2022-08-01T00:58:13.958Z,6.38
2022-08-01T00:59:19.126Z,5.07
2022-08-01T01:00:27.320Z,6.25
2022-08-01T01:01:39.745Z,7.28
2022-08-01T01:02:44.770Z,4.93
2022-08-01T01:04:08.410Z,5.30
2022-08-01T01:05:11.487Z,5.80
2022-08-01T01:06:23.181Z,5.60
2022-08-01T01:07:34.506Z,4.95
2022-08-01T01:08:43.313Z,5.32
2022-08-01T01:09:53.067Z,5.30
2022-08-01T01:11:02.364Z,5.07
2022-08-01T01:12:17.096Z,6.95
2022-08-01T01:13:24.232Z,5.55
2022-08-01T01:14:35.847Z,5.80
2022-08-01T01:15:42.759Z,5.90
2022-08-01T01:16:46.952Z,5.22
2022-08-01T01:17:54.778Z,5.18
2022-08-01T01:19:03.780Z,4.85
2022-08-01T01:20:09.285Z,5.05
2022-08-01T01:21:33.421Z,5.45
2022-08-01T01:22:51.858Z,5.95
2022-08-01T01:24:06.431Z,6.13
2022-08-01T01:25:23.657Z,5.25
2022-08-01T01:26:38.113Z,5.60
2022-08-01T01:27:50.930Z,5.15
2022-08-01T01:29:08.055Z,5.50
2022-08-01T01:30:10.907Z,5.60
2022-08-01T01:31:15.409Z,5.22
2022-08-01T01:32:28.817Z,4.47
2022-08-01T01:33:46.992Z,7.28
2022-08-01T01:34:52.812Z,5.20
2022-08-01T01:36:03.017Z,5.22
2022-08-01T01:37:14.392Z,5.10
2022-08-01T01:38:20.948Z,8.43
2022-08-01T01:39:27.767Z,5.22
2022-08-01T01:40:32.162Z,5.10
2022-08-01T01:41:36.578Z,5.40
2022-08-01T01:42:39.453Z,4.97
2022-08-01T01:43:43.401Z,5.63
2022-08-01T01:44:48.791Z,4.85
2022-08-01T01:45:53.026Z,5.07
2022-08-01T01:46:57.414Z,4.93
2022-08-01T01:48:01.110Z,4.78
2022-08-01T01:49:04.139Z,6.15
2022-08-01T01:50:10.490Z,5.95
2022-08-01T01:51:14.135Z,5.82
2022-08-01T01:52:19.777Z,6.55
2022-08-01T01:53:23.584Z,4.70
2022-08-01T01:54:30.456Z,5.10
2022-08-01T01:55:33.445Z,5.20
2022-08-01T01:56:54.096Z,6.38
2022-08-01T01:57:58.635Z,5.45
2022-08-01T01:59:06.395Z,6.03
2022-08-01T02:00:12.855Z,5.03
2022-08-01T02:01:16.816Z,5.85
2022-08-01T02:02:39.700Z,5.22
2022-08-01T02:03:44.589Z,4.53
2022-08-01T02:04:47.840Z,5.28
2022-08-01T02:05:53.111Z,6.10
2022-08-01T02:06:56.942Z,5.20
2022-08-01T02:08:00.880Z,5.13
2022-08-01T02:09:03.691Z,4.97
2022-08-01T02:10:08.495Z,5.22
2022-08-01T02:11:20.020Z,5.43
2022-08-01T02:12:23.996Z,5.07
2022-08-01T02:13:26.945Z,6.30
2022-08-01T02:14:31.226Z,5.85
2022-08-01T02:15:39.182Z,7.63
2022-08-01T02:17:04.753Z,5.15
2022-08-01T02:18:08.694Z,6.35
2022-08-01T02:19:12.174Z,6.00
2022-08-01T02:20:14.811Z,6.70
2022-08-01T02:21:22.613Z,5.00
2022-08-01T02:22:29.915Z,5.57
2022-08-01T02:23:35.858Z,5.32
2022-08-01T02:24:41.820Z,5.57
2022-08-01T02:26:10.612Z,4.95
2022-08-01T02:27:13.521Z,5.47
2022-08-01T02:28:27.229Z,4.78
2022-08-01T02:29:49.081Z,5.03
2022-08-01T02:30:52.454Z,5.97
2022-08-01T02:31:56.890Z,5.40
2022-08-01T02:33:04.438Z,6.28
2022-08-01T02:34:11.558Z,4.93
2022-08-01T02:35:19.230Z,4.88
2022-08-01T02:36:31.246Z,5.10
2022-08-01T02:37:38.558Z,5.00
2022-08-01T02:38:47.591Z,6.15
2022-08-01T02:39:54.590Z,6.05
2022-08-01T02:41:01.488Z,5.95
2022-08-01T02:42:09.628Z,5.97
2022-08-01T02:43:13.964Z,6.28
2022-08-01T02:44:25.051Z,4.88
2022-08-01T02:45:28.104Z,5.28
2022-08-01T02:46:37.181Z,5.60
2022-08-01T02:47:41.206Z,4.97
2022-08-01T02:48:45.510Z,4.70
2022-08-01T02:49:53.338Z,5.10
2022-08-01T02:51:00.506Z,7.60
2022-08-01T02:52:08.248Z,5.63
2022-08-01T02:53:14.718Z,4.80
2022-08-01T02:54:19.468Z,6.10
2022-08-01T02:55:23.652Z,5.53
2022-08-01T02:56:35.574Z,5.00
2022-08-01T02:57:51.469Z,5.55
2022-08-01T02:58:55.392Z,5.85
2022-08-01T03:00:01.124Z,4.97
2022-08-01T03:01:03.955Z,5.05
2022-08-01T03:02:10.215Z,5.10
2022-08-01T03:03:13.698Z,4.93
2022-08-01T03:04:18.710Z,5.18
2022-08-01T03:05:21.230Z,6.50
2022-08-01T03:06:25.554Z,5.25
2022-08-01T03:07:34.381Z,5.30
2022-08-01T03:08:42.870Z,5.47
2022-08-01T03:09:47.047Z,5.10
2022-08-01T03:10:52.607Z,5.60
2022-08-01T03:11:58.110Z,6.13
2022-08-01T03:13:02.185Z,5.63
2022-08-01T03:14:09.753Z,5.70
2022-08-01T03:15:13.064Z,4.93
2022-08-01T03:16:18.652Z,6.13
2022-08-01T03:17:24.890Z,4.40
2022-08-01T03:18:30.641Z,5.90
2022-08-01T03:19:34.454Z,5.05
2022-08-01T03:20:38.034Z,6.05
2022-08-01T03:21:42.786Z,5.90
2022-08-01T03:22:46.484Z,5.57
2022-08-01T03:23:55.098Z,5.28
2022-08-01T03:25:00.149Z,4.70
2022-08-01T03:26:04.136Z,5.18
2022-08-01T03:27:07.990Z,5.10
2022-08-01T03:28:15.201Z,5.13
2022-08-01T03:29:20.890Z,5.43
2022-08-01T03:30:25.276Z,5.35
2022-08-01T03:31:28.772Z,5.25
2022-08-01T03:32:33.397Z,5.35
2022-08-01T03:33:35.522Z,5.45
2022-08-01T03:34:38.570Z,6.95
2022-08-01T03:35:50.603Z,6.60
2022-08-01T03:36:58.525Z,5.50
2022-08-01T03:38:17.696Z,5.00
2022-08-01T03:39:23.573Z,5.15
2022-08-01T03:40:29.442Z,6.88
2022-08-01T03:41:38.224Z,5.72
2022-08-01T03:42:46.738Z,6.07
2022-08-01T03:43:58.659Z,6.35
2022-08-01T03:45:06.889Z,6.95
2022-08-01T03:46:12.332Z,6.15
2022-08-01T03:47:16.988Z,4.72
2022-08-01T03:48:29.024Z,5.20
2022-08-01T03:49:34.800Z,5.53
2022-08-01T03:50:40.460Z,7.93
2022-08-01T03:51:46.074Z,5.97
2022-08-01T03:52:51.159Z,7.85
2022-08-01T03:53:56.086Z,5.20
2022-08-01T03:55:01.904Z,4.85
2022-08-01T03:56:05.631Z,5.60
2022-08-01T03:57:20.098Z,5.15
2022-08-01T03:58:37.086Z,6.85
2022-08-01T03:59:41.044Z,5.63
2022-08-01T04:00:45.143Z,5.00
2022-08-01T04:01:48.800Z,4.80
2022-08-01T04:02:53.114Z,5.82
2022-08-01T04:04:03.518Z,6.30
2022-08-01T04:05:08.435Z,5.93
2022-08-01T04:06:11.518Z,4.90
2022-08-01T04:07:25.612Z,5.40
2022-08-01T04:08:38.109Z,5.47
2022-08-01T04:09:40.343Z,5.38
2022-08-01T04:10:45.430Z,5.25
2022-08-01T04:11:48.200Z,5.45
2022-08-01T04:12:51.619Z,5.25
2022-08-01T04:13:55.282Z,6.30
2022-08-01T04:14:59.149Z,4.90
2022-08-01T04:16:01.603Z,5.65
2022-08-01T04:17:05.594Z,10.10
2022-08-01T04:18:07.978Z,5.03
2022-08-01T04:19:12.771Z,6.18
2022-08-01T04:20:18.673Z,6.22
2022-08-01T04:21:28.875Z,5.88
2022-08-01T04:22:31.777Z,6.60
2022-08-01T04:23:43.652Z,6.05
2022-08-01T04:24:56.314Z,7.47
2022-08-01T04:26:00.985Z,7.35
2022-08-01T04:27:06.400Z,4.93
2022-08-01T04:28:12.162Z,5.07
2022-08-01T04:29:18.758Z,5.30
2022-08-01T04:30:26.258Z,5.55
2022-08-01T04:31:31.075Z,5.95
2022-08-01T04:32:40.128Z,6.40
2022-08-01T04:33:47.046Z,6.50
2022-08-01T04:34:52.508Z,5.57
2022-08-01T04:36:04.154Z,7.03
2022-08-01T04:37:13.221Z,6.85
2022-08-01T04:38:20.318Z,5.93
2022-08-01T04:39:28.587Z,5.95
2022-08-01T04:40:32.001Z,4.88
2022-08-01T04:41:36.951Z,5.03
2022-08-01T04:42:39.866Z,5.15
2022-08-01T04:43:44.419Z,5.38
2022-08-01T04:44:46.981Z,5.93
2022-08-01T04:45:51.374Z,5.10
2022-08-01T04:46:55.526Z,5.10
2022-08-01T04:48:00.785Z,6.15
2022-08-01T04:49:03.444Z,5.68
2022-08-01T04:50:10.561Z,4.90
2022-08-01T04:51:16.204Z,5.50
2022-08-01T04:52:24.643Z,5.43
2022-08-01T04:53:27.810Z,5.10
2022-08-01T04:54:37.842Z,5.22
2022-08-01T04:55:40.369Z,5.30
2022-08-01T04:56:44.140Z,4.85
2022-08-01T04:57:49.517Z,6.40
2022-08-01T04:59:19.710Z,5.28
2022-08-01T05:00:22.751Z,5.72
2022-08-01T05:01:26.129Z,5.35
2022-08-01T05:02:30.071Z,4.85
2022-08-01T05:03:38.441Z,5.60
2022-08-01T05:04:42.161Z,5.40
2022-08-01T05:05:47.477Z,6.45
2022-08-01T05:06:49.771Z,6.05
2022-08-01T05:07:53.245Z,5.50
2022-08-01T05:08:55.961Z,5.13
2022-08-01T05:09:59.386Z,4.82
2022-08-01T05:11:02.472Z,5.95
2022-08-01T05:12:08.144Z,6.55
2022-08-01T05:13:12.106Z,5.50
2022-08-01T05:14:15.889Z,5.38
2022-08-01T05:15:18.235Z,4.80
2022-08-01T05:16:24.109Z,6.60
2022-08-01T05:17:26.839Z,5.60
2022-08-01T05:18:30.558Z,7.38
2022-08-01T05:19:34.299Z,7.07
2022-08-01T05:20:38.183Z,6.18
2022-08-01T05:21:42.620Z,6.25
2022-08-01T05:22:46.052Z,5.22
2022-08-01T05:23:50.154Z,5.00
2022-08-01T05:24:54.626Z,5.95
2022-08-01T05:25:59.054Z,6.05
2022-08-01T05:27:07.526Z,6.93
2022-08-01T05:28:09.826Z,4.95
2022-08-01T05:29:13.238Z,5.10
2022-08-01T05:30:15.531Z,6.57
2022-08-01T05:31:19.019Z,5.93
2022-08-01T05:32:21.655Z,7.78
2022-08-01T05:33:25.388Z,6.20
2022-08-01T05:34:28.469Z,7.78
2022-08-01T05:35:48.684Z,7.03
2022-08-01T05:36:57.821Z,5.40
2022-08-01T05:38:01.330Z,8.38
2022-08-01T05:39:03.957Z,4.70
2022-08-01T05:40:08.201Z,5.57
2022-08-01T05:41:11.793Z,5.95
2022-08-01T05:42:16.057Z,5.18
2022-08-01T05:43:19.492Z,5.20
2022-08-01T05:44:23.030Z,4.90
2022-08-01T05:45:26.435Z,5.40
2022-08-01T05:46:29.296Z,5.55
2022-08-01T05:47:34.179Z,6.45
2022-08-01T05:48:41.707Z,6.63
2022-08-01T05:49:48.024Z,4.82
2022-08-01T05:50:53.760Z,5.75
2022-08-01T05:52:03.615Z,9.20
2022-08-01T05:53:06.597Z,6.00
2022-08-01T05:54:11.094Z,4.85
2022-08-01T05:55:16.055Z,6.25
2022-08-01T05:56:19.850Z,5.18
2022-08-01T05:57:23.373Z,5.03
2022-08-01T05:58:26.069Z,4.90
2022-08-01T05:59:31.451Z,9.25
2022-08-01T06:00:34.484Z,4.60
2022-08-01T06:01:41.602Z,4.43
2022-08-01T06:02:47.644Z,5.97
2022-08-01T06:03:51.582Z,6.68
2022-08-01T06:04:56.768Z,5.68
2022-08-01T06:06:02.700Z,4.50
2022-08-01T06:07:11.780Z,5.30
2022-08-01T06:08:14.461Z,5.20
2022-08-01T06:09:18.152Z,6.97
2022-08-01T06:10:21.501Z,4.75
2022-08-01T06:11:30.138Z,5.93
2022-08-01T06:12:37.235Z,4.20
2022-08-01T06:13:47.060Z,5.10
2022-08-01T06:14:56.214Z,4.40
2022-08-01T06:16:02.830Z,5.10
2022-08-01T06:17:09.123Z,4.80
2022-08-01T06:18:16.084Z,4.32
2022-08-01T06:19:23.275Z,5.88
2022-08-01T06:20:42.830Z,8.65
2022-08-01T06:21:51.060Z,5.15
2022-08-01T06:23:23.756Z,5.65
2022-08-01T06:24:38.417Z,6.65
2022-08-01T06:25:55.058Z,5.43
2022-08-01T06:27:22.370Z,5.60
2022-08-01T06:28:40.992Z,5.90
2022-08-01T06:29:50.444Z,4.43
2022-08-01T06:30:59.593Z,5.93
2022-08-01T06:32:02.301Z,6.07
2022-08-01T06:33:09.934Z,7.47
2022-08-01T06:34:23.957Z,5.00
2022-08-01T06:35:35.457Z,5.03
2022-08-01T06:36:39.302Z,5.28
2022-08-01T06:37:42.322Z,4.65
2022-08-01T06:39:09.278Z,5.40
2022-08-01T06:40:16.955Z,5.87
2022-08-01T06:41:36.220Z,6.30
2022-08-01T06:43:06.237Z,6.43
2022-08-01T06:44:16.607Z,5.07
2022-08-01T06:45:31.823Z,13.18
2022-08-01T06:46:36.100Z,4.63
2022-08-01T06:47:53.679Z,5.07
2022-08-01T06:49:12.206Z,8.33
2022-08-01T06:50:25.134Z,4.68
2022-08-01T06:51:41.799Z,5.40
2022-08-01T06:53:01.911Z,4.30
2022-08-01T06:54:16.564Z,5.10
2022-08-01T06:55:21.139Z,4.87
2022-08-01T06:56:30.519Z,6.73
2022-08-01T06:57:50.062Z,8.57
2022-08-01T06:59:02.364Z,6.90
2022-08-01T07:00:08.948Z,4.60
2022-08-01T07:01:28.337Z,7.23
2022-08-01T07:02:32.928Z,5.83
2022-08-01T07:03:53.430Z,4.90
2022-08-01T07:05:01.114Z,4.57
2022-08-01T07:06:06.464Z,4.90
2022-08-01T07:07:20.071Z,7.30
2022-08-01T07:08:30.651Z,5.10
2022-08-01T07:09:37.027Z,7.67
2022-08-01T07:10:51.337Z,4.80
2022-08-01T07:12:18.473Z,4.67
2022-08-01T07:13:36.817Z,6.03
2022-08-01T07:14:58.685Z,4.10
2022-08-01T07:16:09.742Z,5.50
2022-08-01T07:17:24.578Z,3.77
2022-08-01T07:19:59.958Z,4.73
2022-08-01T07:29:11.847Z,5.90
2022-08-01T07:30:47.526Z,3.87
2022-08-01T07:37:06.661Z,4.00
2022-08-01T07:39:36.434Z,3.10
2022-08-01T07:42:07.796Z,3.60
2022-08-01T07:43:13.267Z,3.60
2022-08-01T07:46:58.560Z,3.40
2022-08-01T07:51:24.948Z,3.33
2022-08-01T07:53:09.238Z,4.00
2022-08-01T07:55:04.370Z,3.93
2022-08-01T07:56:53.632Z,4.20
2022-08-01T08:00:53.874Z,4.23
2022-08-01T08:02:50.025Z,4.00
2022-08-01T08:04:19.747Z,4.00
2022-08-01T08:06:00.131Z,4.18
2022-08-01T08:07:39.522Z,3.60
2022-08-01T08:09:31.117Z,4.07
2022-08-01T08:10:47.578Z,3.70
2022-08-01T08:11:55.438Z,4.00
2022-08-01T08:13:11.798Z,4.13
2022-08-01T08:14:36.442Z,4.07
2022-08-01T08:15:57.517Z,3.40
2022-08-01T08:17:22.913Z,4.10
2022-08-01T08:18:46.142Z,3.95
2022-08-01T08:19:53.665Z,5.93
2022-08-01T08:21:17.010Z,3.70
2022-08-01T08:22:41.726Z,3.58
2022-08-01T08:24:10.731Z,3.15
2022-08-01T08:25:27.695Z,3.42
2022-08-01T08:26:38.287Z,3.80
2022-08-01T08:27:50.281Z,4.22
2022-08-01T08:29:04.732Z,4.05
2022-08-01T08:30:20.471Z,3.40
2022-08-01T08:31:51.736Z,3.50
2022-08-01T08:33:06.363Z,3.92
2022-08-01T08:34:20.944Z,4.53
2022-08-01T08:35:40.378Z,3.67
2022-08-01T08:37:12.744Z,4.50
2022-08-01T08:38:28.507Z,5.88
2022-08-01T08:39:56.334Z,3.50
2022-08-01T08:41:15.867Z,5.60
2022-08-01T08:42:23.675Z,3.13
2022-08-01T08:43:28.421Z,4.45
2022-08-01T08:44:32.086Z,3.60
2022-08-01T08:45:59.505Z,4.40
2022-08-01T08:47:03.385Z,3.80
2022-08-01T08:48:08.524Z,3.90
2022-08-01T08:49:14.038Z,4.00
2022-08-01T08:50:21.777Z,3.78
2022-08-01T08:51:27.727Z,3.70
2022-08-01T08:52:33.045Z,3.40
2022-08-01T08:53:38.673Z,5.95
2022-08-01T08:54:47.590Z,4.18
2022-08-01T08:55:55.337Z,4.45
2022-08-01T08:57:02.911Z,4.68
2022-08-01T08:58:11.892Z,3.50
2022-08-01T08:59:16.561Z,5.90
2022-08-01T09:00:25.975Z,3.60
2022-08-01T09:01:36.605Z,3.50
2022-08-01T09:02:46.732Z,4.38
2022-08-01T09:04:01.916Z,4.90
2022-08-01T09:05:14.935Z,4.75
2022-08-01T09:06:27.741Z,4.32
2022-08-01T09:07:32.667Z,8.18
2022-08-01T09:08:38.938Z,4.03
2022-08-01T09:09:53.360Z,3.60
2022-08-01T09:10:56.567Z,5.63
2022-08-01T09:12:02.855Z,3.45
2022-08-01T09:13:13.420Z,4.05
2022-08-01T09:14:23.567Z,3.55
2022-08-01T09:15:43.096Z,4.30
2022-08-01T09:17:01.314Z,2.88
2022-08-01T09:18:09.511Z,2.70
2022-08-01T09:19:40.668Z,2.45
2022-08-01T09:20:50.031Z,4.32
2022-08-01T09:22:01.065Z,4.70
2022-08-01T09:23:07.495Z,3.60
2022-08-01T09:24:30.324Z,3.40
2022-08-01T09:25:56.928Z,3.60
2022-08-01T09:27:22.875Z,3.53
2022-08-01T09:28:30.455Z,4.65
2022-08-01T09:29:41.090Z,3.30
2022-08-01T09:30:45.387Z,3.40
2022-08-01T09:32:03.070Z,2.75
2022-08-01T09:33:18.143Z,3.40
2022-08-01T09:34:37.276Z,2.60
2022-08-01T09:35:45.986Z,5.03
2022-08-01T09:37:04.014Z,2.92
2022-08-01T09:38:20.828Z,2.92
2022-08-01T09:39:28.369Z,3.58
2022-08-01T09:40:58.379Z,6.45
2022-08-01T09:42:28.650Z,2.95
2022-08-01T09:43:40.960Z,2.88
2022-08-01T09:44:55.522Z,2.88
2022-08-01T09:45:59.752Z,2.90
2022-08-01T09:47:19.675Z,3.60
2022-08-01T09:48:31.424Z,3.45
2022-08-01T09:49:52.178Z,5.10
2022-08-01T09:51:10.964Z,3.33
2022-08-01T09:52:29.013Z,9.43
2022-08-01T09:53:51.180Z,3.10
2022-08-01T09:55:01.035Z,3.60
2022-08-01T09:56:14.266Z,2.90
2022-08-01T09:57:20.685Z,2.72
2022-08-01T09:58:24.069Z,2.70
2022-08-01T09:59:57.961Z,2.60
2022-08-01T10:01:08.250Z,2.50
2022-08-01T10:02:37.807Z,2.50
2022-08-01T10:03:43.962Z,2.72
2022-08-01T10:04:59.554Z,7.03
2022-08-01T10:06:25.275Z,2.63
2022-08-01T10:07:42.700Z,3.22
2022-08-01T10:08:52.808Z,2.60
2022-08-01T10:09:58.755Z,2.67
2022-08-01T10:11:16.569Z,2.60
2022-08-01T10:12:25.354Z,2.63
2022-08-01T10:13:36.410Z,4.05
2022-08-01T10:14:46.320Z,4.53
2022-08-01T10:15:55.281Z,3.83
2022-08-01T10:17:05.715Z,2.35
2022-08-01T10:18:16.432Z,4.90
2022-08-01T10:19:35.537Z,2.40
2022-08-01T10:20:39.826Z,2.40
2022-08-01T10:21:58.369Z,2.20
2022-08-01T10:23:07.277Z,2.40
2022-08-01T10:24:14.305Z,3.50
2022-08-01T10:25:42.982Z,2.35
2022-08-01T10:26:53.698Z,2.42
2022-08-01T10:28:12.468Z,2.58
2022-08-01T10:29:24.264Z,2.50
2022-08-01T10:30:46.564Z,2.30
2022-08-01T10:32:00.556Z,4.10
2022-08-01T10:33:15.271Z,2.75
2022-08-01T10:34:44.837Z,5.07
2022-08-01T10:35:54.924Z,2.70
2022-08-01T10:37:03.919Z,2.63
2022-08-01T10:38:16.019Z,2.30
2022-08-01T10:39:25.556Z,3.65
2022-08-01T10:40:37.735Z,5.10
2022-08-01T10:41:45.338Z,2.47
2022-08-01T10:43:00.057Z,2.40
2022-08-01T10:44:13.247Z,2.40
2022-08-01T10:45:21.116Z,3.13
2022-08-01T10:46:30.019Z,3.05
2022-08-01T10:47:50.191Z,2.38
2022-08-01T10:49:12.351Z,2.30
2022-08-01T10:50:29.193Z,2.67
2022-08-01T10:51:54.882Z,4.85
2022-08-01T10:53:16.210Z,3.05
2022-08-01T10:54:26.391Z,1.98
2022-08-01T10:55:56.261Z,3.17
2022-08-01T10:57:09.707Z,2.63
2022-08-01T10:58:23.502Z,2.42
2022-08-01T10:59:55.139Z,3.85
2022-08-01T11:01:30.402Z,3.83
2022-08-01T11:02:45.517Z,3.15
2022-08-01T11:04:03.276Z,3.65
2022-08-01T11:27:35.304Z,3.35
2022-08-01T11:57:15.251Z,3.38
2022-08-01T12:01:32.399Z,3.13
2022-08-01T12:03:47.549Z,1.80
2022-08-01T12:06:03.050Z,1.70
2022-08-01T12:09:45.105Z,2.35
2022-08-01T12:13:20.002Z,3.17
2022-08-01T12:14:39.331Z,1.58
2022-08-01T12:16:13.824Z,1.70
2022-08-01T12:26:28.313Z,2.20
2022-08-01T12:30:52.838Z,2.67
2022-08-01T12:50:15.303Z,2.15
2022-08-01T12:52:42.275Z,2.25
2022-08-01T13:06:10.356Z,1.80
2022-08-01T13:10:00.347Z,2.85
2022-08-01T13:11:59.022Z,1.70
2022-08-01T13:16:55.150Z,1.92
2022-08-01T13:18:49.386Z,1.50
2022-08-01T13:23:07.946Z,3.15
2022-08-01T13:25:27.572Z,3.50
2022-08-01T13:27:54.072Z,1.92
2022-08-01T13:28:46.002Z,5.20
2022-08-01T13:30:54.610Z,1.77
2022-08-01T13:32:49.080Z,2.42
2022-08-01T13:42:55.411Z,1.50
2022-08-01T13:45:51.625Z,1.52
2022-08-01T13:47:36.667Z,2.65
2022-08-01T13:49:37.148Z,1.70
2022-08-01T13:51:38.426Z,2.08
2022-08-01T13:53:13.372Z,1.80
2022-08-01T13:54:37.396Z,1.85
2022-08-01T13:56:42.394Z,2.20
2022-08-01T13:58:48.458Z,1.98
2022-08-01T14:00:42.619Z,1.70
2022-08-01T14:02:30.401Z,2.17
2022-08-01T14:04:20.704Z,1.55
2022-08-01T14:06:39.100Z,2.35
2022-08-01T14:08:08.215Z,3.22
2022-08-01T14:10:19.654Z,1.48
2022-08-01T14:12:38.448Z,2.10
2022-08-01T14:14:56.240Z,3.50
2022-08-01T14:16:38.177Z,2.08
2022-08-01T14:18:55.507Z,2.40
2022-08-01T14:20:40.586Z,2.13
2022-08-01T14:23:10.331Z,2.25
2022-08-01T14:25:24.023Z,4.38
2022-08-01T14:30:25.772Z,3.58
2022-08-01T14:32:28.469Z,2.38
2022-08-01T14:34:25.774Z,3.50
2022-08-01T14:36:28.943Z,1.67
2022-08-01T14:38:31.157Z,1.42
2022-08-01T14:43:23.085Z,3.45
2022-08-01T14:46:57.194Z,2.10
2022-08-01T14:48:59.363Z,1.98
2022-08-01T14:52:21.115Z,2.85
2022-08-01T14:56:25.838Z,4.05
2022-08-01T14:58:05.817Z,2.00
2022-08-01T14:59:22.260Z,2.63
2022-08-01T15:00:28.544Z,2.35
2022-08-01T15:04:39.559Z,2.67
2022-08-01T15:06:37.404Z,2.25
2022-08-01T15:14:25.633Z,3.45
2022-08-01T15:16:00.059Z,2.33
2022-08-01T15:17:42.726Z,2.63
2022-08-01T15:22:46.724Z,4.63
2022-08-01T15:23:13.575Z,2.60
2022-08-01T15:24:28.705Z,2.55
2022-08-01T15:26:30.242Z,3.17
2022-08-01T15:28:23.525Z,3.63
2022-08-01T15:30:08.297Z,2.60
2022-08-01T15:32:14.516Z,4.13
2022-08-01T15:33:20.164Z,2.22
2022-08-01T15:35:45.642Z,3.22
2022-08-01T15:38:10.489Z,3.15
2022-08-01T15:40:39.828Z,2.40
2022-08-01T15:42:27.788Z,2.78
2022-08-01T15:43:41.777Z,2.75
2022-08-01T15:45:46.997Z,2.60
2022-08-01T15:48:14.636Z,3.88
2022-08-01T15:50:11.409Z,2.88
2022-08-01T15:54:28.000Z,3.83
2022-08-01T15:56:36.414Z,3.08
2022-08-01T16:03:15.506Z,4.32
2022-08-01T16:05:13.014Z,3.88
2022-08-01T16:06:59.693Z,3.55
2022-08-01T16:09:24.357Z,2.95
2022-08-01T16:13:15.883Z,5.90
2022-08-01T16:15:19.535Z,5.15
2022-08-01T16:16:35.175Z,3.58
2022-08-01T16:18:02.082Z,3.50
2022-08-01T16:20:45.466Z,2.35
2022-08-01T16:22:31.031Z,4.45
2022-08-01T16:25:01.083Z,2.75
2022-08-01T16:27:57.979Z,2.70
2022-08-01T16:29:21.942Z,4.28
2022-08-01T16:33:13.540Z,2.50
2022-08-01T16:36:44.485Z,8.32
2022-08-01T16:40:56.350Z,3.88
2022-08-01T16:43:11.021Z,2.72
2022-08-01T16:45:00.254Z,3.15
2022-08-01T16:46:41.701Z,4.90
2022-08-01T16:48:35.989Z,2.67
2022-08-01T16:55:26.198Z,2.50
2022-08-01T16:59:41.469Z,2.53
2022-08-01T17:04:24.810Z,2.58
2022-08-01T17:06:26.241Z,2.45
2022-08-01T17:08:02.909Z,2.03
2022-08-01T17:12:21.899Z,4.10
2022-08-01T17:17:50.117Z,2.40
2022-08-01T17:19:56.840Z,3.05
2022-08-01T17:22:16.071Z,2.92
2022-08-01T17:30:40.967Z,2.35
2022-08-01T17:32:56.226Z,2.45
2022-08-01T17:38:17.362Z,3.58
2022-08-01T17:39:56.720Z,2.65
2022-08-01T17:43:11.744Z,2.88
2022-08-01T17:45:27.405Z,4.00
2022-08-01T17:47:49.779Z,2.60
2022-08-01T17:49:55.303Z,2.70
2022-08-01T17:52:55.609Z,2.70
2022-08-01T17:55:56.251Z,2.75
2022-08-01T17:57:28.026Z,2.80
2022-08-01T17:59:27.834Z,3.60
2022-08-01T18:03:12.218Z,4.07
2022-08-01T18:04:20.297Z,2.78
2022-08-01T18:06:08.851Z,3.05
2022-08-01T18:12:38.973Z,2.30
2022-08-01T18:14:09.898Z,3.88
2022-08-01T18:16:13.600Z,3.55
2022-08-01T18:17:31.442Z,4.10
2022-08-01T18:19:25.086Z,5.47
2022-08-01T18:23:13.516Z,2.90
2022-08-01T18:26:14.395Z,5.55
2022-08-01T18:27:19.235Z,2.97
2022-08-01T18:28:32.714Z,2.50
2022-08-01T18:29:48.240Z,2.20
2022-08-01T18:30:51.751Z,4.30
2022-08-01T18:31:56.169Z,2.88
2022-08-01T18:32:59.961Z,2.30
2022-08-01T18:34:03.192Z,3.35
2022-08-01T18:35:13.276Z,3.00
2022-08-01T18:36:32.115Z,2.60
2022-08-01T18:37:37.757Z,4.65
2022-08-01T18:38:50.275Z,3.40
2022-08-01T18:39:53.606Z,3.22
2022-08-01T18:40:57.104Z,3.05
2022-08-01T18:42:01.053Z,3.58
2022-08-01T18:43:05.051Z,2.75
2022-08-01T18:44:09.103Z,2.80
2022-08-01T18:45:13.074Z,2.65
2022-08-01T18:46:15.424Z,3.25
2022-08-01T18:47:18.725Z,2.92
2022-08-01T18:48:20.872Z,3.15
2022-08-01T18:49:24.082Z,4.55
2022-08-01T18:50:26.936Z,1.90
2022-08-01T18:51:30.174Z,2.90
2022-08-01T18:52:33.686Z,3.92
2022-08-01T18:53:36.283Z,2.38
2022-08-01T18:54:39.349Z,3.25
2022-08-01T18:55:41.662Z,2.85
2022-08-01T18:56:45.525Z,2.20
2022-08-01T18:57:47.721Z,4.07
2022-08-01T18:58:52.357Z,3.40
2022-08-01T18:59:55.462Z,2.08
2022-08-01T19:00:58.745Z,1.83
2022-08-01T19:02:01.424Z,2.25
2022-08-01T19:03:05.195Z,2.40
2022-08-01T19:04:07.990Z,3.70
2022-08-01T19:05:12.022Z,3.00
2022-08-01T19:06:15.794Z,2.80
2022-08-01T19:07:33.644Z,2.55
2022-08-01T19:08:42.302Z,3.85
2022-08-01T19:09:45.391Z,4.25
2022-08-01T19:10:47.551Z,3.95
2022-08-01T19:11:50.853Z,6.78
2022-08-01T19:12:52.992Z,4.60
2022-08-01T19:13:57.376Z,8.20
2022-08-01T19:15:04.583Z,5.45
2022-08-01T19:16:07.045Z,4.45
2022-08-01T19:17:10.038Z,3.80
2022-08-01T19:18:12.320Z,5.65
2022-08-01T19:19:15.377Z,4.63
2022-08-01T19:20:30.949Z,2.90
2022-08-01T19:21:33.993Z,4.82
2022-08-01T19:22:36.159Z,3.60
2022-08-01T19:23:57.458Z,3.00
2022-08-01T19:25:13.594Z,3.90
2022-08-01T19:26:28.810Z,6.15
2022-08-01T19:27:35.039Z,3.85
2022-08-01T19:28:46.083Z,5.60
2022-08-01T19:30:03.598Z,3.78
2022-08-01T19:31:09.326Z,3.30
2022-08-01T19:32:41.497Z,5.65
2022-08-01T19:33:54.558Z,4.35
2022-08-01T19:35:05.857Z,6.18
2022-08-01T19:36:14.452Z,4.50
2022-08-01T19:37:27.298Z,7.28
2022-08-01T19:38:37.389Z,6.30
2022-08-01T19:39:49.341Z,5.75
2022-08-01T19:40:58.283Z,4.00
2022-08-01T19:42:13.552Z,4.00
2022-08-01T19:43:36.749Z,4.60
2022-08-01T19:44:43.900Z,4.80
2022-08-01T19:46:17.680Z,3.25
2022-08-01T19:50:41.496Z,4.35
2022-08-01T19:52:23.410Z,3.63
2022-08-01T19:53:44.150Z,3.03
2022-08-01T19:58:24.086Z,3.75
2022-08-01T20:00:57.204Z,4.72
2022-08-01T20:02:13.151Z,5.55
2022-08-01T20:06:26.318Z,3.65
2022-08-01T20:07:35.529Z,4.50
2022-08-01T20:09:01.584Z,5.93
2022-08-01T20:13:13.603Z,7.35
2022-08-01T20:14:38.215Z,3.92
2022-08-01T20:23:18.357Z,4.28
2022-08-01T20:28:01.477Z,5.68
2022-08-01T20:29:17.558Z,6.55
2022-08-01T20:30:51.499Z,4.10
2022-08-01T20:34:22.955Z,3.60
2022-08-01T20:36:56.899Z,6.43
2022-08-01T20:38:38.890Z,4.32
2022-08-01T20:42:43.952Z,4.10
2022-08-01T20:49:47.250Z,4.03
2022-08-01T20:51:56.922Z,3.90
2022-08-01T20:53:27.403Z,3.58
2022-08-01T21:00:49.908Z,5.53
2022-08-01T21:03:14.310Z,5.85
2022-08-01T21:05:26.996Z,5.38
2022-08-01T21:06:38.180Z,4.90
2022-08-01T21:07:44.375Z,4.80
2022-08-01T21:08:47.588Z,4.85
2022-08-01T21:09:58.718Z,5.13
2022-08-01T21:11:03.346Z,4.25
2022-08-01T21:12:08.836Z,4.68
2022-08-01T21:13:20.530Z,5.03
2022-08-01T21:14:34.846Z,4.13
2022-08-01T21:15:59.927Z,4.05
2022-08-01T21:17:13.407Z,4.57
2022-08-01T21:18:20.803Z,6.13
2022-08-01T21:19:28.746Z,6.30
2022-08-01T21:20:34.313Z,7.28
2022-08-01T21:21:41.219Z,6.18
2022-08-01T21:22:58.579Z,6.35
2022-08-01T21:24:06.043Z,6.00
2022-08-01T21:25:13.640Z,5.68
2022-08-01T21:26:19.341Z,5.57
2022-08-01T21:27:33.112Z,5.75
2022-08-01T21:28:54.635Z,5.32
2022-08-01T21:30:00.452Z,4.10